createdAt,value
2023-04-16T00:01:39.870Z,100.00
2023-04-16T00:04:07.799Z,100.00
2023-04-16T00:06:35.559Z,100.00
2023-04-16T00:09:04.592Z,100.00
2023-04-16T00:11:32.185Z,100.00
2023-04-16T00:13:59.810Z,100.00
2023-04-16T00:16:27.590Z,100.00
2023-04-16T00:18:55.181Z,100.00
2023-04-16T00:21:22.775Z,100.00
2023-04-16T00:23:50.386Z,100.00
2023-04-16T00:26:19.379Z,100.00
2023-04-16T00:28:47.438Z,100.00
2023-04-16T00:31:15.440Z,100.00
2023-04-16T00:33:43.300Z,100.00
2023-04-16T00:36:11.094Z,100.00
2023-04-16T00:38:38.797Z,100.00
2023-04-16T00:41:06.468Z,100.00
2023-04-16T00:43:35.428Z,100.00
2023-04-16T00:46:07.035Z,100.00
2023-04-16T00:48:35.983Z,100.00
2023-04-16T00:51:06.078Z,100.00
2023-04-16T00:53:34.928Z,100.00
2023-04-16T00:56:03.835Z,100.00
2023-04-16T00:58:31.701Z,100.00
2023-04-16T01:01:00.857Z,100.00
2023-04-16T01:03:38.198Z,100.00
2023-04-16T01:06:06.658Z,100.00
2023-04-16T01:08:34.638Z,100.00
2023-04-16T01:11:03.338Z,100.00
2023-04-16T01:13:31.147Z,100.00
2023-04-16T01:16:00.465Z,100.00
2023-04-16T01:18:28.182Z,100.00
2023-04-16T01:20:57.294Z,100.00
2023-04-16T01:23:24.918Z,100.00
2023-04-16T01:25:53.802Z,100.00
2023-04-16T01:28:22.288Z,100.00
2023-04-16T01:30:49.950Z,100.00
2023-04-16T01:33:40.039Z,100.00
2023-04-16T01:36:09.549Z,100.00
2023-04-16T01:38:37.169Z,100.00
2023-04-16T01:41:04.893Z,100.00
2023-04-16T01:43:32.661Z,100.00
2023-04-16T01:46:13.191Z,100.00
2023-04-16T01:48:40.902Z,100.00
2023-04-16T01:51:09.985Z,100.00
2023-04-16T01:53:37.726Z,100.00
2023-04-16T01:56:06.011Z,100.00
2023-04-16T01:58:34.485Z,100.00
2023-04-16T02:01:02.588Z,100.00
2023-04-16T02:03:30.568Z,100.00
2023-04-16T02:05:58.873Z,100.00
2023-04-16T02:08:27.926Z,100.00
2023-04-16T02:10:57.248Z,100.00
2023-04-16T02:13:26.510Z,100.00
2023-04-16T02:15:54.449Z,100.00
2023-04-16T02:18:34.124Z,100.00
2023-04-16T02:21:02.244Z,100.00
2023-04-16T02:23:31.173Z,100.00
2023-04-16T02:26:00.989Z,100.00
2023-04-16T02:28:29.349Z,100.00
2023-04-16T02:30:57.103Z,100.00
2023-04-16T02:33:26.253Z,100.00
2023-04-16T02:36:00.013Z,100.00
2023-04-16T02:38:27.674Z,100.00
2023-04-16T02:40:56.733Z,100.00
2023-04-16T02:43:24.423Z,100.00
2023-04-16T02:45:52.165Z,100.00
2023-04-16T02:48:19.920Z,100.00
2023-04-16T02:50:47.583Z,100.00
2023-04-16T02:53:15.325Z,100.00
2023-04-16T02:55:45.279Z,100.00
2023-04-16T02:58:14.187Z,100.00
2023-04-16T03:00:41.805Z,100.00
2023-04-16T03:03:09.525Z,100.00
2023-04-16T03:05:39.051Z,100.00
2023-04-16T03:08:08.149Z,100.00
2023-04-16T03:10:36.447Z,100.00
2023-04-16T03:13:04.825Z,100.00
2023-04-16T03:15:33.989Z,100.00
2023-04-16T03:18:01.872Z,100.00
2023-04-16T03:20:29.803Z,100.00
2023-04-16T03:22:57.417Z,100.00
2023-04-16T03:25:25.343Z,100.00
2023-04-16T03:27:52.951Z,100.00
2023-04-16T03:30:20.669Z,100.00
2023-04-16T03:32:49.645Z,100.00
2023-04-16T03:35:17.270Z,100.00
2023-04-16T03:37:45.789Z,100.00
2023-04-16T03:40:14.485Z,100.00
2023-04-16T03:42:42.644Z,100.00
2023-04-16T03:45:10.821Z,100.00
2023-04-16T03:47:39.652Z,100.00
2023-04-16T03:50:11.397Z,100.00
2023-04-16T03:52:39.527Z,100.00
2023-04-16T03:55:08.233Z,100.00
2023-04-16T03:57:36.002Z,100.00
2023-04-16T04:00:09.720Z,100.00
2023-04-16T04:02:53.903Z,100.00
2023-04-16T04:05:23.041Z,100.00
2023-04-16T04:07:51.248Z,100.00
2023-04-16T04:10:18.949Z,100.00
2023-04-16T04:12:46.634Z,100.00
2023-04-16T04:15:14.369Z,100.00
2023-04-16T04:17:43.369Z,100.00
2023-04-16T04:20:12.447Z,100.00
2023-04-16T04:22:42.926Z,100.00
2023-04-16T04:25:12.593Z,100.00
2023-04-16T04:27:40.177Z,100.00
2023-04-16T04:30:09.961Z,100.00
2023-04-16T04:32:38.002Z,100.00
2023-04-16T04:35:06.026Z,100.00
2023-04-16T04:37:33.617Z,100.00
2023-04-16T04:40:09.279Z,100.00
2023-04-16T04:42:38.782Z,100.00
2023-04-16T04:45:07.764Z,100.00
2023-04-16T04:47:36.536Z,100.00
2023-04-16T04:50:04.559Z,100.00
2023-04-16T04:52:33.790Z,100.00
2023-04-16T04:55:02.717Z,100.00
2023-04-16T04:57:32.476Z,100.00
2023-04-16T05:00:00.307Z,100.00
2023-04-16T05:02:31.679Z,100.00
2023-04-16T05:04:59.355Z,100.00
2023-04-16T05:07:26.923Z,100.00
2023-04-16T05:09:54.457Z,100.00
2023-04-16T05:12:22.108Z,100.00
2023-04-16T05:14:51.112Z,100.00
2023-04-16T05:17:18.768Z,100.00
2023-04-16T05:19:46.371Z,100.00
2023-04-16T05:22:14.084Z,100.00
2023-04-16T05:24:41.785Z,100.00
2023-04-16T05:27:09.515Z,100.00
2023-04-16T05:29:37.036Z,100.00
2023-04-16T05:32:05.991Z,99.76
2023-04-16T05:34:33.509Z,100.00
2023-04-16T05:37:01.210Z,100.00
2023-04-16T05:39:28.747Z,100.00
2023-04-16T05:41:56.332Z,100.00
2023-04-16T05:44:23.986Z,100.00
2023-04-16T05:46:51.652Z,100.00
2023-04-16T05:49:21.383Z,100.00
2023-04-16T05:51:50.846Z,100.00
2023-04-16T05:54:18.651Z,100.00
2023-04-16T05:56:46.217Z,100.00
2023-04-16T05:59:13.818Z,100.00
2023-04-16T06:01:42.093Z,100.00
2023-04-16T06:04:09.847Z,100.00
2023-04-16T06:06:40.140Z,100.00
2023-04-16T06:09:07.961Z,100.00
2023-04-16T06:11:36.554Z,100.00
2023-04-16T06:14:04.166Z,99.94
2023-04-16T06:16:31.870Z,99.21
2023-04-16T06:18:59.637Z,99.21
2023-04-16T06:21:28.067Z,98.61
2023-04-16T06:23:57.083Z,99.41
2023-04-16T06:26:24.643Z,98.30
2023-04-16T06:28:52.155Z,98.37
2023-04-16T06:31:19.839Z,98.45
2023-04-16T06:33:47.423Z,97.57
2023-04-16T06:36:16.615Z,97.55
2023-04-16T06:38:44.290Z,97.21
2023-04-16T06:41:15.088Z,97.56
2023-04-16T06:43:42.688Z,96.61
2023-04-16T06:46:10.317Z,97.09
2023-04-16T06:48:37.896Z,96.76
2023-04-16T06:51:05.590Z,97.32
2023-04-16T06:53:33.403Z,97.29
2023-04-16T06:56:00.999Z,96.39
2023-04-16T06:58:30.015Z,96.22
2023-04-16T07:00:57.749Z,96.44
2023-04-16T07:03:25.756Z,95.85
2023-04-16T07:05:53.441Z,96.57
2023-04-16T07:08:21.000Z,96.82
2023-04-16T07:10:48.667Z,96.67
2023-04-16T07:13:18.415Z,95.49
2023-04-16T07:15:47.376Z,95.43
2023-04-16T07:18:14.978Z,95.08
2023-04-16T07:20:42.593Z,95.72
2023-04-16T07:23:10.274Z,95.10
2023-04-16T07:25:38.064Z,95.33
2023-04-16T07:28:05.707Z,95.43
2023-04-16T07:30:34.604Z,95.58
2023-04-16T07:33:03.911Z,95.20
2023-04-16T07:35:32.372Z,94.59
2023-04-16T07:37:59.933Z,95.03
2023-04-16T07:40:27.681Z,93.99
2023-04-16T07:42:55.984Z,94.07
2023-04-16T07:45:24.696Z,94.90
2023-04-16T07:47:52.267Z,93.10
2023-04-16T07:50:21.323Z,93.96
2023-04-16T07:52:48.878Z,93.49
2023-04-16T07:55:16.514Z,93.97
2023-04-16T07:57:44.120Z,94.22
2023-04-16T08:00:12.881Z,93.28
2023-04-16T08:02:45.175Z,93.44
2023-04-16T08:05:13.628Z,92.18
2023-04-16T08:07:42.595Z,92.10
2023-04-16T08:10:10.529Z,92.08
2023-04-16T08:12:38.191Z,91.21
2023-04-16T08:15:07.395Z,90.97
2023-04-16T08:17:35.303Z,92.21
2023-04-16T08:20:02.921Z,91.96
2023-04-16T08:22:30.652Z,91.31
2023-04-16T08:24:59.633Z,91.80
2023-04-16T08:27:27.340Z,91.48
2023-04-16T08:29:54.961Z,91.57
2023-04-16T08:32:22.534Z,91.01
2023-04-16T08:34:50.248Z,90.83
2023-04-16T08:37:17.773Z,90.42
2023-04-16T08:39:45.399Z,90.79
2023-04-16T08:42:22.653Z,90.81
2023-04-16T08:45:01.035Z,90.40
2023-04-16T08:47:32.065Z,90.35
2023-04-16T08:50:00.174Z,90.70
2023-04-16T08:52:31.736Z,90.68
2023-04-16T08:55:05.591Z,90.41
2023-04-16T08:57:41.456Z,90.17
2023-04-16T09:00:10.810Z,89.62
2023-04-16T09:02:39.412Z,88.53
2023-04-16T09:05:09.158Z,89.25
2023-04-16T09:07:37.717Z,87.35
2023-04-16T09:10:09.185Z,88.55
2023-04-16T09:12:38.426Z,89.06
2023-04-16T09:15:07.575Z,89.03
2023-04-16T09:17:35.898Z,89.26
2023-04-16T09:20:05.733Z,88.17
2023-04-16T09:22:33.396Z,88.53
2023-04-16T09:25:01.058Z,89.47
2023-04-16T09:27:29.365Z,89.12
2023-04-16T09:29:58.456Z,88.22
2023-04-16T09:32:28.098Z,87.62
2023-04-16T09:34:57.612Z,88.71
2023-04-16T09:37:25.997Z,88.79
2023-04-16T09:39:55.101Z,89.48
2023-04-16T09:42:24.191Z,89.57
2023-04-16T09:44:52.307Z,88.95
2023-04-16T09:47:21.971Z,88.91
2023-04-16T09:49:49.912Z,89.25
2023-04-16T09:52:18.705Z,88.76
2023-04-16T09:54:51.097Z,89.20
2023-04-16T09:57:22.736Z,88.83
2023-04-16T09:59:53.851Z,89.71
2023-04-16T10:02:27.447Z,89.46
2023-04-16T10:04:55.807Z,89.55
2023-04-16T10:07:23.478Z,89.24
2023-04-16T10:09:52.392Z,89.84
2023-04-16T10:12:20.614Z,89.56
2023-04-16T10:14:50.062Z,89.96
2023-04-16T10:17:18.470Z,90.97
2023-04-16T10:19:47.891Z,91.57
2023-04-16T10:22:16.084Z,91.55
2023-04-16T10:24:44.461Z,91.53
2023-04-16T10:27:12.348Z,90.84
2023-04-16T10:29:40.101Z,90.57
2023-04-16T10:32:07.926Z,90.40
2023-04-16T10:34:36.962Z,88.95
2023-04-16T10:37:05.844Z,90.15
2023-04-16T10:39:38.019Z,90.73
2023-04-16T10:42:09.808Z,91.33
2023-04-16T10:44:37.483Z,92.20
2023-04-16T10:47:12.037Z,91.31
2023-04-16T10:49:39.765Z,91.65
2023-04-16T10:52:13.812Z,94.96
2023-04-16T10:54:41.873Z,92.18
2023-04-16T10:57:12.146Z,91.93
2023-04-16T10:59:40.275Z,92.11
2023-04-16T11:02:09.680Z,88.52
2023-04-16T11:04:39.133Z,89.02
2023-04-16T11:07:13.864Z,89.38
2023-04-16T11:09:52.972Z,88.98
2023-04-16T11:12:22.299Z,90.45
2023-04-16T11:14:52.064Z,91.57
2023-04-16T11:17:20.796Z,92.30
2023-04-16T11:19:49.012Z,92.20
2023-04-16T11:22:18.471Z,92.32
2023-04-16T11:24:48.357Z,93.21
2023-04-16T11:27:17.387Z,93.07
2023-04-16T11:29:47.441Z,93.65
2023-04-16T11:32:24.180Z,95.70
2023-04-16T11:34:51.811Z,95.02
2023-04-16T11:37:21.798Z,95.36
2023-04-16T11:39:51.512Z,95.39
2023-04-16T11:42:24.094Z,94.32
2023-04-16T11:44:55.711Z,95.20
2023-04-16T11:47:23.937Z,94.99
2023-04-16T11:49:52.193Z,95.06
2023-04-16T11:52:28.182Z,95.70
2023-04-16T11:54:56.312Z,96.13
2023-04-16T11:57:30.590Z,95.88
2023-04-16T12:00:01.589Z,95.96
2023-04-16T12:02:42.331Z,97.01
2023-04-16T12:05:28.310Z,96.65
2023-04-16T12:07:56.225Z,95.27
2023-04-16T12:10:23.836Z,96.90
2023-04-16T12:12:52.898Z,97.29
2023-04-16T12:15:20.558Z,96.47
2023-04-16T12:17:48.752Z,96.18
2023-04-16T12:20:16.979Z,96.57
2023-04-16T12:22:46.448Z,97.34
2023-04-16T12:25:16.629Z,96.79
2023-04-16T12:27:46.593Z,97.49
2023-04-16T12:30:16.851Z,97.85
2023-04-16T12:32:48.354Z,96.32
2023-04-16T12:35:30.910Z,96.72
2023-04-16T12:37:58.649Z,98.04
2023-04-16T12:40:26.353Z,99.16
2023-04-16T12:42:54.781Z,98.18
2023-04-16T12:45:23.950Z,98.21
2023-04-16T12:47:51.514Z,98.41
2023-04-16T12:50:19.212Z,99.91
2023-04-16T12:52:46.854Z,99.30
2023-04-16T12:55:14.900Z,100.00
2023-04-16T12:57:42.658Z,99.69
2023-04-16T13:00:11.567Z,100.00
2023-04-16T13:02:41.147Z,100.00
2023-04-16T13:05:09.286Z,99.91
2023-04-16T13:07:37.061Z,100.00
2023-04-16T13:10:04.970Z,100.00
2023-04-16T13:12:32.681Z,100.00
2023-04-16T13:15:00.226Z,100.00
2023-04-16T13:17:27.805Z,100.00
2023-04-16T13:19:56.716Z,100.00
2023-04-16T13:22:24.271Z,100.00
2023-04-16T13:24:51.820Z,99.93
2023-04-16T13:27:20.139Z,100.00
2023-04-16T13:29:47.740Z,100.00
2023-04-16T13:32:15.979Z,99.38
2023-04-16T13:34:43.751Z,99.68
2023-04-16T13:37:12.716Z,100.00
2023-04-16T13:39:40.575Z,100.00
2023-04-16T13:42:08.301Z,99.40
2023-04-16T13:44:35.873Z,100.00
2023-04-16T13:47:03.622Z,100.00
2023-04-16T13:49:35.045Z,99.87
2023-04-16T13:52:03.367Z,100.00
2023-04-16T13:54:32.275Z,100.00
2023-04-16T13:56:59.881Z,100.00
2023-04-16T13:59:27.521Z,100.00
2023-04-16T14:01:55.184Z,100.00
2023-04-16T14:04:22.885Z,99.91
2023-04-16T14:06:50.717Z,100.00
2023-04-16T14:09:18.267Z,100.00
2023-04-16T14:11:47.249Z,100.00
2023-04-16T14:14:14.942Z,100.00
2023-04-16T14:16:42.576Z,100.00
2023-04-16T14:19:10.530Z,100.00
2023-04-16T14:21:38.418Z,100.00
2023-04-16T14:24:06.631Z,100.00
2023-04-16T14:26:34.160Z,100.00
2023-04-16T14:29:03.133Z,100.00
2023-04-16T14:31:32.221Z,100.00
2023-04-16T14:33:59.860Z,100.00
2023-04-16T14:36:27.518Z,100.00
2023-04-16T14:38:55.194Z,100.00
2023-04-16T14:41:22.788Z,100.00
2023-04-16T14:43:50.349Z,100.00
2023-04-16T14:46:19.405Z,100.00
2023-04-16T14:48:47.050Z,100.00
2023-04-16T14:51:14.572Z,100.00
2023-04-16T14:53:42.110Z,100.00
2023-04-16T14:56:09.707Z,100.00
2023-04-16T14:58:39.443Z,100.00
2023-04-16T15:01:07.114Z,100.00
2023-04-16T15:03:36.217Z,100.00
2023-04-16T15:06:04.495Z,100.00
2023-04-16T15:08:32.294Z,100.00
2023-04-16T15:10:59.901Z,100.00
2023-04-16T15:13:33.535Z,100.00
2023-04-16T15:16:01.351Z,100.00
2023-04-16T15:18:29.224Z,100.00
2023-04-16T15:20:58.199Z,100.00
2023-04-16T15:23:25.924Z,100.00
2023-04-16T15:25:53.537Z,100.00
2023-04-16T15:28:21.055Z,100.00
2023-04-16T15:30:48.646Z,100.00
2023-04-16T15:33:16.233Z,100.00
2023-04-16T15:35:43.978Z,100.00
2023-04-16T15:38:12.863Z,100.00
2023-04-16T15:40:41.852Z,100.00
2023-04-16T15:43:09.536Z,100.00
2023-04-16T15:45:37.450Z,100.00
2023-04-16T15:48:06.248Z,100.00
2023-04-16T15:50:34.613Z,100.00
2023-04-16T15:53:02.229Z,100.00
2023-04-16T15:55:31.236Z,100.00
2023-04-16T15:57:58.813Z,100.00
2023-04-16T16:00:27.411Z,100.00
2023-04-16T16:02:55.079Z,100.00
2023-04-16T16:05:22.919Z,100.00
2023-04-16T16:07:50.610Z,100.00
2023-04-16T16:10:18.836Z,100.00
2023-04-16T16:12:48.061Z,100.00
2023-04-16T16:15:15.636Z,100.00
2023-04-16T16:17:43.273Z,100.00
2023-04-16T16:20:12.770Z,100.00
2023-04-16T16:22:41.734Z,100.00
2023-04-16T16:25:10.019Z,100.00
2023-04-16T16:27:37.723Z,100.00
2023-04-16T16:30:08.247Z,100.00
2023-04-16T16:32:36.000Z,100.00
2023-04-16T16:35:03.652Z,100.00
2023-04-16T16:37:31.256Z,100.00
2023-04-16T16:39:58.775Z,100.00
2023-04-16T16:42:26.512Z,100.00
2023-04-16T16:44:56.021Z,100.00
2023-04-16T16:47:26.389Z,100.00
2023-04-16T16:49:54.609Z,100.00
2023-04-16T16:52:24.541Z,100.00
2023-04-16T16:54:52.084Z,100.00
2023-04-16T16:57:20.103Z,100.00
2023-04-16T16:59:48.372Z,100.00
2023-04-16T17:02:17.101Z,100.00
2023-04-16T17:04:46.109Z,100.00
2023-04-16T17:07:16.571Z,100.00
2023-04-16T17:09:44.102Z,100.00
2023-04-16T17:12:11.839Z,100.00
2023-04-16T17:14:39.690Z,100.00
2023-04-16T17:17:07.219Z,100.00
2023-04-16T17:19:34.840Z,100.00
2023-04-16T17:22:03.792Z,100.00
2023-04-16T17:24:31.352Z,100.00
2023-04-16T17:26:59.444Z,100.00
2023-04-16T17:29:27.021Z,100.00
2023-04-16T17:31:54.776Z,100.00
2023-04-16T17:34:22.401Z,100.00
2023-04-16T17:36:50.476Z,100.00
2023-04-16T17:39:20.687Z,100.00
2023-04-16T17:41:54.333Z,100.00
2023-04-16T17:44:22.969Z,100.00
2023-04-16T17:46:50.591Z,100.00
2023-04-16T17:49:18.272Z,100.00
2023-04-16T17:51:47.243Z,100.00
2023-04-16T17:54:14.795Z,100.00
2023-04-16T17:56:45.988Z,100.00
2023-04-16T17:59:13.559Z,100.00
2023-04-16T18:01:41.663Z,100.00
2023-04-16T18:04:11.578Z,100.00
2023-04-16T18:06:39.565Z,100.00
2023-04-16T18:09:07.238Z,100.00
2023-04-16T18:11:35.035Z,100.00
2023-04-16T18:14:03.922Z,100.00
2023-04-16T18:16:31.457Z,100.00
2023-04-16T18:18:59.090Z,100.00
2023-04-16T18:21:27.365Z,100.00
2023-04-16T18:23:54.928Z,100.00
2023-04-16T18:26:23.043Z,100.00
2023-04-16T18:28:51.373Z,100.00
2023-04-16T18:31:21.311Z,100.00
2023-04-16T18:33:57.422Z,100.00
2023-04-16T18:36:26.411Z,100.00
2023-04-16T18:39:01.516Z,100.00
2023-04-16T18:41:30.654Z,100.00
2023-04-16T18:43:58.508Z,100.00
2023-04-16T18:46:27.803Z,100.00
2023-04-16T18:48:55.654Z,100.00
2023-04-16T18:51:23.249Z,100.00
2023-04-16T18:53:51.141Z,100.00
2023-04-16T18:56:18.721Z,100.00
2023-04-16T18:58:47.546Z,100.00
2023-04-16T19:01:16.561Z,100.00
2023-04-16T19:03:46.127Z,100.00
2023-04-16T19:06:13.751Z,100.00
2023-04-16T19:08:41.349Z,100.00
2023-04-16T19:11:08.857Z,100.00
2023-04-16T19:13:36.466Z,100.00
2023-04-16T19:16:06.006Z,100.00
2023-04-16T19:18:33.557Z,100.00
2023-04-16T19:21:03.678Z,100.00
2023-04-16T19:23:31.279Z,100.00
2023-04-16T19:25:59.132Z,100.00
2023-04-16T19:28:27.272Z,100.00
2023-04-16T19:30:55.281Z,100.00
2023-04-16T19:33:22.935Z,100.00
2023-04-16T19:35:50.591Z,100.00
2023-04-16T19:38:19.509Z,100.00
2023-04-16T19:40:48.818Z,100.00
2023-04-16T19:43:16.468Z,100.00
2023-04-16T19:45:44.628Z,100.00
2023-04-16T19:48:12.616Z,100.00
2023-04-16T19:50:41.018Z,100.00
2023-04-16T19:53:08.871Z,100.00
2023-04-16T19:55:39.584Z,100.00
2023-04-16T19:58:07.297Z,100.00
2023-04-16T20:00:37.346Z,100.00
2023-04-16T20:03:06.137Z,100.00
2023-04-16T20:05:33.818Z,100.00
2023-04-16T20:08:01.470Z,100.00
2023-04-16T20:10:31.205Z,100.00
2023-04-16T20:13:00.320Z,100.00
2023-04-16T20:15:27.937Z,100.00
2023-04-16T20:17:56.059Z,100.00
2023-04-16T20:20:23.865Z,100.00
2023-04-16T20:22:51.555Z,100.00
2023-04-16T20:25:20.350Z,100.00
2023-04-16T20:27:48.145Z,100.00
2023-04-16T20:30:17.301Z,100.00
2023-04-16T20:32:45.223Z,100.00
2023-04-16T20:35:12.953Z,100.00
2023-04-16T20:37:42.859Z,100.00
2023-04-16T20:40:11.208Z,100.00
2023-04-16T20:42:40.739Z,100.00
2023-04-16T20:45:11.102Z,100.00
2023-04-16T20:47:40.567Z,100.00
2023-04-16T20:50:11.008Z,100.00
2023-04-16T20:52:38.630Z,100.00
2023-04-16T20:55:07.938Z,100.00
2023-04-16T20:57:35.621Z,100.00
2023-04-16T21:00:05.599Z,100.00
2023-04-16T21:02:33.297Z,100.00
2023-04-16T21:05:03.037Z,100.00
2023-04-16T21:07:30.755Z,100.00
2023-04-16T21:10:00.472Z,100.00
2023-04-16T21:12:28.122Z,100.00
2023-04-16T21:14:57.104Z,100.00
2023-04-16T21:17:24.727Z,100.00
2023-04-16T21:19:52.274Z,100.00
2023-04-16T21:22:21.201Z,100.00
2023-04-16T21:24:48.710Z,100.00
2023-04-16T21:27:16.251Z,100.00
2023-04-16T21:29:43.814Z,100.00
2023-04-16T21:32:11.400Z,100.00
2023-04-16T21:34:38.932Z,100.00
2023-04-16T21:37:06.679Z,100.00
2023-04-16T21:39:35.588Z,100.00
2023-04-16T21:42:03.207Z,100.00
2023-04-16T21:44:30.837Z,100.00
2023-04-16T21:46:58.418Z,100.00
2023-04-16T21:49:26.070Z,100.00
2023-04-16T21:51:58.862Z,100.00
2023-04-16T21:54:26.425Z,100.00
2023-04-16T21:56:55.259Z,100.00
2023-04-16T21:59:23.169Z,100.00
2023-04-16T22:01:50.775Z,100.00
2023-04-16T22:04:18.587Z,100.00
2023-04-16T22:06:46.762Z,100.00
2023-04-16T22:09:15.362Z,100.00
2023-04-16T22:11:42.902Z,100.00
2023-04-16T22:14:12.875Z,100.00
2023-04-16T22:16:41.877Z,100.00
2023-04-16T22:19:09.834Z,100.00
2023-04-16T22:21:37.512Z,100.00
2023-04-16T22:24:05.416Z,100.00
2023-04-16T22:26:32.938Z,100.00
2023-04-16T22:29:00.502Z,100.00
2023-04-16T22:31:29.467Z,100.00
2023-04-16T22:33:57.127Z,100.00
2023-04-16T22:36:24.730Z,100.00
2023-04-16T22:38:52.380Z,100.00
2023-04-16T22:41:19.944Z,100.00
2023-04-16T22:43:47.476Z,100.00
2023-04-16T22:46:15.216Z,100.00
2023-04-16T22:48:44.162Z,100.00
2023-04-16T22:51:11.929Z,100.00
2023-04-16T22:53:39.523Z,100.00
2023-04-16T22:56:07.790Z,100.00
2023-04-16T22:58:35.394Z,100.00
2023-04-16T23:01:03.064Z,100.00
2023-04-16T23:03:30.861Z,100.00
2023-04-16T23:05:59.915Z,100.00
2023-04-16T23:08:27.462Z,100.00
2023-04-16T23:10:55.044Z,100.00
2023-04-16T23:13:22.702Z,100.00
2023-04-16T23:15:50.404Z,100.00
2023-04-16T23:18:18.028Z,100.00
2023-04-16T23:20:45.655Z,100.00
2023-04-16T23:23:14.506Z,100.00
2023-04-16T23:25:42.092Z,100.00
2023-04-16T23:28:09.629Z,100.00
2023-04-16T23:30:37.348Z,100.00
2023-04-16T23:33:05.164Z,100.00
2023-04-16T23:35:32.742Z,100.00
2023-04-16T23:38:00.284Z,100.00
2023-04-16T23:40:29.173Z,100.00
2023-04-16T23:42:56.733Z,100.00
2023-04-16T23:45:24.311Z,100.00
2023-04-16T23:47:52.021Z,100.00
2023-04-16T23:50:19.706Z,100.00
2023-04-16T23:52:48.340Z,100.00
2023-04-16T23:55:15.932Z,100.00
2023-04-16T23:57:44.802Z,100.00
